createdAt,value
2018-02-01T00:01:07.839Z,4.36
2018-02-01T00:03:35.370Z,4.32
2018-02-01T00:06:02.902Z,4.37
2018-02-01T00:08:30.442Z,4.40
2018-02-01T00:10:57.973Z,4.43
2018-02-01T00:13:25.518Z,4.43
2018-02-01T00:15:53.087Z,4.36
2018-02-01T00:18:20.670Z,4.20
2018-02-01T00:20:48.238Z,4.21
2018-02-01T00:23:15.837Z,4.23
2018-02-01T00:25:43.400Z,4.16
2018-02-01T00:28:10.927Z,4.12
2018-02-01T00:30:38.472Z,4.24
2018-02-01T00:33:06.166Z,4.35
2018-02-01T00:35:33.801Z,4.49
2018-02-01T00:38:01.408Z,4.54
2018-02-01T00:40:29.023Z,4.69
2018-02-01T00:42:56.564Z,4.78
2018-02-01T00:45:24.102Z,4.86
2018-02-01T00:47:51.640Z,4.93
2018-02-01T00:50:19.172Z,4.98
2018-02-01T00:52:46.754Z,4.99
2018-02-01T00:55:14.287Z,5.03
2018-02-01T00:57:41.878Z,5.02
2018-02-01T01:00:09.421Z,4.99
2018-02-01T01:02:37.198Z,4.97
2018-02-01T01:05:04.758Z,4.96
2018-02-01T01:07:32.443Z,4.91
2018-02-01T01:10:00.153Z,4.84
2018-02-01T01:12:27.718Z,4.73
2018-02-01T01:14:55.489Z,4.61
2018-02-01T01:17:23.027Z,4.42
2018-02-01T01:19:50.558Z,4.26
2018-02-01T01:22:18.095Z,4.24
2018-02-01T01:24:45.673Z,4.20
2018-02-01T01:27:13.262Z,4.15
2018-02-01T01:29:40.898Z,4.16
2018-02-01T01:32:08.518Z,4.21
2018-02-01T01:34:36.073Z,4.27
2018-02-01T01:37:03.602Z,4.32
2018-02-01T01:39:31.134Z,4.32
2018-02-01T01:41:58.661Z,4.34
2018-02-01T01:44:26.406Z,4.29
2018-02-01T01:46:53.934Z,4.27
2018-02-01T01:49:21.465Z,4.32
2018-02-01T01:51:49.255Z,4.28
2018-02-01T01:54:16.786Z,4.38
2018-02-01T01:56:44.491Z,4.45
2018-02-01T01:59:12.017Z,4.47
2018-02-01T02:01:39.616Z,4.45
2018-02-01T02:04:07.303Z,4.38
2018-02-01T02:06:36.868Z,4.31
2018-02-01T02:09:04.490Z,4.26
2018-02-01T02:11:32.018Z,4.28
2018-02-01T02:13:59.558Z,4.37
2018-02-01T02:16:27.086Z,4.45
2018-02-01T02:18:54.758Z,4.46
2018-02-01T02:21:22.310Z,4.54
2018-02-01T02:23:49.842Z,4.49
2018-02-01T02:26:17.406Z,4.32
2018-02-01T02:28:44.954Z,4.07
2018-02-01T02:31:12.647Z,3.90
2018-02-01T02:33:40.279Z,3.85
2018-02-01T02:36:07.887Z,3.77
2018-02-01T02:38:35.418Z,3.73
2018-02-01T02:41:02.970Z,3.58
2018-02-01T02:43:30.638Z,3.50
2018-02-01T02:45:58.357Z,3.41
2018-02-01T02:48:25.897Z,3.40
2018-02-01T02:50:53.426Z,3.41
2018-02-01T02:53:21.010Z,3.48
2018-02-01T02:55:48.565Z,3.51
2018-02-01T02:58:16.094Z,3.45
2018-02-01T03:00:43.642Z,3.32
2018-02-01T03:03:11.170Z,3.30
2018-02-01T03:05:38.762Z,3.30
2018-02-01T03:08:06.330Z,3.31
2018-02-01T03:10:34.031Z,3.34
2018-02-01T03:13:01.562Z,3.45
2018-02-01T03:15:29.099Z,3.44
2018-02-01T03:17:56.883Z,3.45
2018-02-01T03:20:24.406Z,3.34
2018-02-01T03:22:51.990Z,3.19
2018-02-01T03:25:19.514Z,3.00
2018-02-01T03:27:47.097Z,2.83
2018-02-01T03:30:14.640Z,2.68
2018-02-01T03:32:42.179Z,2.59
2018-02-01T03:35:09.907Z,2.52
2018-02-01T03:37:37.433Z,2.52
2018-02-01T03:40:05.010Z,2.49
2018-02-01T03:42:32.541Z,2.50
2018-02-01T03:45:00.070Z,2.48
2018-02-01T03:47:27.672Z,2.39
2018-02-01T03:49:55.203Z,2.31
2018-02-01T03:52:22.738Z,2.17
2018-02-01T03:54:50.461Z,2.06
2018-02-01T03:57:18.237Z,2.00
2018-02-01T03:59:45.776Z,1.99
2018-02-01T04:02:13.303Z,2.00
2018-02-01T04:04:41.089Z,2.01
2018-02-01T04:07:08.613Z,1.88
2018-02-01T04:09:36.156Z,1.82
2018-02-01T04:12:03.850Z,1.77
2018-02-01T04:14:31.432Z,1.76
2018-02-01T04:16:58.967Z,1.77
2018-02-01T04:19:26.598Z,1.89
2018-02-01T04:21:54.133Z,1.93
2018-02-01T04:24:21.658Z,1.95
2018-02-01T04:26:49.194Z,1.92
2018-02-01T04:29:16.721Z,1.96
2018-02-01T04:31:44.258Z,1.93
2018-02-01T04:34:11.795Z,1.93
2018-02-01T04:36:39.377Z,1.96
2018-02-01T04:39:06.902Z,1.94
2018-02-01T04:41:34.430Z,1.97
2018-02-01T04:44:02.067Z,2.05
2018-02-01T04:46:29.594Z,2.11
2018-02-01T04:48:57.129Z,2.09
2018-02-01T04:51:24.658Z,2.08
2018-02-01T04:53:52.246Z,2.03
2018-02-01T04:56:19.773Z,1.99
2018-02-01T04:58:47.362Z,1.93
2018-02-01T05:01:14.907Z,1.89
2018-02-01T05:03:42.437Z,1.91
2018-02-01T05:06:09.983Z,1.82
2018-02-01T05:08:37.658Z,1.78
2018-02-01T05:11:05.392Z,1.73
2018-02-01T05:13:32.926Z,1.70
2018-02-01T05:16:00.454Z,1.67
2018-02-01T05:18:27.994Z,1.63
2018-02-01T05:20:55.522Z,1.67
2018-02-01T05:23:23.160Z,1.69
2018-02-01T05:25:50.883Z,1.63
2018-02-01T05:28:18.461Z,1.58
2018-02-01T05:30:45.985Z,1.62
2018-02-01T05:33:13.562Z,1.63
2018-02-01T05:35:41.397Z,1.62
2018-02-01T05:38:08.913Z,1.63
2018-02-01T05:40:36.533Z,1.60
2018-02-01T05:43:04.630Z,1.65
2018-02-01T05:45:32.254Z,1.68
2018-02-01T05:47:59.960Z,1.68
2018-02-01T05:50:27.498Z,1.75
2018-02-01T05:52:55.062Z,1.76
2018-02-01T05:55:22.690Z,1.76
2018-02-01T05:57:50.297Z,1.77
2018-02-01T06:00:18.029Z,1.81
2018-02-01T06:02:45.847Z,1.82
2018-02-01T06:05:13.466Z,1.76
2018-02-01T06:07:41.000Z,1.78
2018-02-01T06:10:08.554Z,1.77
2018-02-01T06:12:36.082Z,1.80
2018-02-01T06:15:03.658Z,1.96
2018-02-01T06:17:31.245Z,2.10
2018-02-01T06:19:58.846Z,2.22
2018-02-01T06:22:26.395Z,2.32
2018-02-01T06:24:53.931Z,2.43
2018-02-01T06:27:21.536Z,2.53
2018-02-01T06:29:49.074Z,2.59
2018-02-01T06:32:16.618Z,2.61
2018-02-01T06:34:44.274Z,2.60
2018-02-01T06:37:12.048Z,2.65
2018-02-01T06:39:39.579Z,2.73
2018-02-01T06:42:07.198Z,2.76
2018-02-01T06:44:34.736Z,2.81
2018-02-01T06:47:02.341Z,2.94
2018-02-01T06:49:30.027Z,3.09
2018-02-01T06:51:57.609Z,3.23
2018-02-01T06:54:25.420Z,3.33
2018-02-01T06:56:52.970Z,3.39
2018-02-01T06:59:20.753Z,3.53
2018-02-01T07:01:51.677Z,3.67
2018-02-01T07:04:19.408Z,3.80
2018-02-01T07:06:46.961Z,4.06
2018-02-01T07:09:14.498Z,4.32
2018-02-01T07:11:42.140Z,5.27
2018-02-01T07:14:09.689Z,6.63
2018-02-01T07:16:37.321Z,7.19
2018-02-01T07:19:05.002Z,7.35
2018-02-01T07:21:32.828Z,8.04
2018-02-01T07:24:00.463Z,9.40
2018-02-01T07:26:28.167Z,10.98
2018-02-01T07:28:55.727Z,12.33
2018-02-01T07:31:23.498Z,12.53
2018-02-01T07:33:51.038Z,13.24
2018-02-01T07:36:18.646Z,14.06
2018-02-01T07:38:46.356Z,14.83
2018-02-01T07:41:13.961Z,15.31
2018-02-01T07:43:41.789Z,15.96
2018-02-01T07:46:10.201Z,16.32
2018-02-01T07:48:37.750Z,16.95
2018-02-01T07:51:05.346Z,17.88
2018-02-01T07:53:32.962Z,18.13
2018-02-01T07:56:00.522Z,18.32
2018-02-01T07:58:28.124Z,18.36
2018-02-01T08:00:55.706Z,19.02
2018-02-01T08:03:23.259Z,19.62
2018-02-01T08:05:50.841Z,19.52
2018-02-01T08:08:18.468Z,19.81
2018-02-01T08:10:46.146Z,19.86
2018-02-01T08:13:14.005Z,19.89
2018-02-01T08:15:41.607Z,19.65
2018-02-01T08:18:09.240Z,19.50
2018-02-01T08:20:36.976Z,19.30
2018-02-01T08:23:04.642Z,18.98
2018-02-01T08:25:32.178Z,19.14
2018-02-01T08:27:59.814Z,19.69
2018-02-01T08:30:27.362Z,19.78
2018-02-01T08:32:54.906Z,20.11
2018-02-01T08:35:22.666Z,20.06
2018-02-01T08:37:50.208Z,20.38
2018-02-01T08:40:17.846Z,21.06
2018-02-01T08:42:45.382Z,20.56
2018-02-01T08:45:13.042Z,20.46
2018-02-01T08:47:40.645Z,20.33
2018-02-01T08:50:08.734Z,19.82
2018-02-01T08:52:36.391Z,19.53
2018-02-01T08:55:03.982Z,19.73
2018-02-01T08:57:31.571Z,20.49
2018-02-01T08:59:59.123Z,20.80
2018-02-01T09:02:26.686Z,20.56
2018-02-01T09:04:54.290Z,20.76
2018-02-01T09:07:21.999Z,20.97
2018-02-01T09:09:49.603Z,21.34
2018-02-01T09:12:17.146Z,21.48
2018-02-01T09:14:44.741Z,21.72
2018-02-01T09:17:12.471Z,20.72
2018-02-01T09:19:40.007Z,20.31
2018-02-01T09:22:07.597Z,19.46
2018-02-01T09:24:35.146Z,19.07
2018-02-01T09:27:02.826Z,19.19
2018-02-01T09:29:30.467Z,19.25
2018-02-01T09:31:58.378Z,19.78
2018-02-01T09:34:26.006Z,20.32
2018-02-01T09:36:53.554Z,20.65
2018-02-01T09:39:21.102Z,21.11
2018-02-01T09:41:48.687Z,21.14
2018-02-01T09:44:16.238Z,20.61
2018-02-01T09:46:43.860Z,20.40
2018-02-01T09:49:11.607Z,20.74
2018-02-01T09:51:39.226Z,21.13
2018-02-01T09:54:06.822Z,20.75
2018-02-01T09:56:34.366Z,19.18
2018-02-01T09:59:01.974Z,19.32
2018-02-01T10:01:29.603Z,19.44
2018-02-01T10:03:57.136Z,18.80
2018-02-01T10:06:24.665Z,18.34
2018-02-01T10:08:52.205Z,18.48
2018-02-01T10:11:19.966Z,18.69
2018-02-01T10:13:47.682Z,18.36
2018-02-01T10:16:15.308Z,17.88
2018-02-01T10:18:42.871Z,18.11
2018-02-01T10:21:10.453Z,18.50
2018-02-01T10:23:38.048Z,19.43
2018-02-01T10:26:05.873Z,19.80
2018-02-01T10:28:33.410Z,19.65
2018-02-01T10:31:01.307Z,19.03
2018-02-01T10:33:28.854Z,18.52
2018-02-01T10:35:56.465Z,18.68
2018-02-01T10:38:24.162Z,18.68
2018-02-01T10:40:51.858Z,19.08
2018-02-01T10:43:19.414Z,19.71
2018-02-01T10:45:46.967Z,19.44
2018-02-01T10:48:14.562Z,19.68
2018-02-01T10:50:42.359Z,20.39
2018-02-01T10:53:10.048Z,20.87
2018-02-01T10:55:37.582Z,20.89
2018-02-01T10:58:05.137Z,20.63
2018-02-01T11:00:32.922Z,20.74
2018-02-01T11:03:00.514Z,21.21
2018-02-01T11:05:28.050Z,21.40
2018-02-01T11:07:55.685Z,21.45
2018-02-01T11:10:23.489Z,21.57
2018-02-01T11:12:51.044Z,21.43
2018-02-01T11:15:18.635Z,21.17
2018-02-01T11:17:46.182Z,21.01
2018-02-01T11:20:13.717Z,21.28
2018-02-01T11:22:41.253Z,21.78
2018-02-01T11:25:09.002Z,22.20
2018-02-01T11:27:36.782Z,22.48
2018-02-01T11:30:04.439Z,22.11
2018-02-01T11:32:32.147Z,22.12
2018-02-01T11:34:59.791Z,22.09
2018-02-01T11:37:27.334Z,21.97
2018-02-01T11:39:55.010Z,22.38
2018-02-01T11:42:22.727Z,22.28
2018-02-01T11:44:50.481Z,22.54
2018-02-01T11:47:18.264Z,22.52
2018-02-01T11:49:45.982Z,22.27
2018-02-01T11:52:13.751Z,22.33
2018-02-01T11:54:41.293Z,22.83
2018-02-01T11:57:08.823Z,22.47
2018-02-01T11:59:36.374Z,22.87
2018-02-01T12:02:04.004Z,23.11
2018-02-01T12:04:31.819Z,23.30
2018-02-01T12:06:59.347Z,23.08
2018-02-01T12:09:26.878Z,22.87
2018-02-01T12:11:54.482Z,23.11
2018-02-01T12:14:22.108Z,22.58
2018-02-01T12:16:49.702Z,22.75
2018-02-01T12:19:17.233Z,23.33
2018-02-01T12:21:44.762Z,22.95
2018-02-01T12:24:12.299Z,22.98
2018-02-01T12:26:39.853Z,22.83
2018-02-01T12:29:07.675Z,22.94
2018-02-01T12:31:35.370Z,23.20
2018-02-01T12:34:03.042Z,23.25
2018-02-01T12:36:30.605Z,22.96
2018-02-01T12:38:58.147Z,22.97
2018-02-01T12:41:25.818Z,23.02
2018-02-01T12:43:53.415Z,23.14
2018-02-01T12:46:20.959Z,23.10
2018-02-01T12:48:48.507Z,23.65
2018-02-01T12:51:16.389Z,24.10
2018-02-01T12:53:44.011Z,23.76
2018-02-01T12:56:11.553Z,23.88
2018-02-01T12:58:39.141Z,24.38
2018-02-01T13:01:06.682Z,25.17
2018-02-01T13:03:34.223Z,25.51
2018-02-01T13:06:01.795Z,25.85
2018-02-01T13:08:29.356Z,26.12
2018-02-01T13:10:57.202Z,26.08
2018-02-01T13:13:25.736Z,25.50
2018-02-01T13:15:53.446Z,25.09
2018-02-01T13:18:21.259Z,25.36
2018-02-01T13:20:49.207Z,25.04
2018-02-01T13:23:16.906Z,24.84
2018-02-01T13:25:46.274Z,25.11
2018-02-01T13:28:13.809Z,24.84
2018-02-01T13:30:41.370Z,24.47
2018-02-01T13:33:08.905Z,22.97
2018-02-01T13:35:36.450Z,21.99
2018-02-01T13:38:04.034Z,21.37
2018-02-01T13:40:31.732Z,21.55
2018-02-01T13:42:59.279Z,22.04
2018-02-01T13:45:26.813Z,22.96
2018-02-01T13:47:54.418Z,23.49
2018-02-01T13:50:21.950Z,23.32
2018-02-01T13:52:49.623Z,23.56
2018-02-01T13:55:17.210Z,24.03
2018-02-01T13:57:44.806Z,24.17
2018-02-01T14:00:12.365Z,24.07
2018-02-01T14:02:39.901Z,24.34
2018-02-01T14:05:07.454Z,24.43
2018-02-01T14:07:35.055Z,24.47
2018-02-01T14:10:02.617Z,24.48
2018-02-01T14:12:30.263Z,24.13
2018-02-01T14:14:57.814Z,24.15
2018-02-01T14:17:25.364Z,23.90
2018-02-01T14:19:52.901Z,23.88
2018-02-01T14:22:20.486Z,23.90
2018-02-01T14:24:48.022Z,23.55
2018-02-01T14:27:15.622Z,22.89
2018-02-01T14:29:43.226Z,22.97
2018-02-01T14:32:10.762Z,22.67
2018-02-01T14:34:38.516Z,22.13
2018-02-01T14:37:06.054Z,21.33
2018-02-01T14:39:33.752Z,21.16
2018-02-01T14:42:01.369Z,21.19
2018-02-01T14:44:28.914Z,21.00
2018-02-01T14:46:56.706Z,20.67
2018-02-01T14:49:24.298Z,20.28
2018-02-01T14:51:52.006Z,19.86
2018-02-01T14:54:19.662Z,19.16
2018-02-01T14:56:47.199Z,18.69
2018-02-01T14:59:14.750Z,18.17
2018-02-01T15:01:42.296Z,17.88
2018-02-01T15:04:10.031Z,17.53
2018-02-01T15:06:37.569Z,16.85
2018-02-01T15:09:05.238Z,16.32
2018-02-01T15:11:32.891Z,15.73
2018-02-01T15:14:00.513Z,15.35
2018-02-01T15:16:28.122Z,14.90
2018-02-01T15:18:55.742Z,14.49
2018-02-01T15:21:23.325Z,14.23
2018-02-01T15:23:50.864Z,14.02
2018-02-01T15:26:18.418Z,13.74
2018-02-01T15:28:45.975Z,13.50
2018-02-01T15:31:13.697Z,13.36
2018-02-01T15:33:41.415Z,13.17
2018-02-01T15:36:09.129Z,12.92
2018-02-01T15:38:36.784Z,12.63
2018-02-01T15:41:04.445Z,12.31
2018-02-01T15:43:31.989Z,12.10
2018-02-01T15:45:59.625Z,11.97
2018-02-01T15:48:27.174Z,11.80
2018-02-01T15:50:54.761Z,11.72
2018-02-01T15:53:22.397Z,11.55
2018-02-01T15:55:50.207Z,11.47
2018-02-01T15:58:17.753Z,11.33
2018-02-01T16:00:45.294Z,11.19
2018-02-01T16:03:12.846Z,11.09
2018-02-01T16:05:40.406Z,11.01
2018-02-01T16:08:08.285Z,10.86
2018-02-01T16:10:36.023Z,10.77
2018-02-01T16:13:03.645Z,10.74
2018-02-01T16:15:31.186Z,10.74
2018-02-01T16:17:58.725Z,10.71
2018-02-01T16:20:26.349Z,10.60
2018-02-01T16:22:54.012Z,10.58
2018-02-01T16:25:21.730Z,10.49
2018-02-01T16:27:49.542Z,10.48
2018-02-01T16:30:17.144Z,10.49
2018-02-01T16:32:44.704Z,10.46
2018-02-01T16:35:12.242Z,10.40
2018-02-01T16:37:39.801Z,10.38
2018-02-01T16:40:07.530Z,10.31
2018-02-01T16:42:35.250Z,10.29
2018-02-01T16:45:03.069Z,10.24
2018-02-01T16:47:30.661Z,10.23
2018-02-01T16:49:58.404Z,10.13
2018-02-01T16:52:26.118Z,10.07
2018-02-01T16:54:53.866Z,10.02
2018-02-01T16:57:21.425Z,10.00
2018-02-01T16:59:49.240Z,9.95
2018-02-01T17:02:16.861Z,9.82
2018-02-01T17:04:44.480Z,9.67
2018-02-01T17:07:12.363Z,9.64
2018-02-01T17:09:39.949Z,9.53
2018-02-01T17:12:07.490Z,9.38
2018-02-01T17:14:35.295Z,9.32
2018-02-01T17:17:02.903Z,9.36
2018-02-01T17:19:30.434Z,9.21
2018-02-01T17:21:58.014Z,9.22
2018-02-01T17:24:25.596Z,9.22
2018-02-01T17:26:53.173Z,9.10
2018-02-01T17:29:20.863Z,9.01
2018-02-01T17:31:48.438Z,8.99
2018-02-01T17:34:15.992Z,8.91
2018-02-01T17:36:43.564Z,8.80
2018-02-01T17:39:11.210Z,8.78
2018-02-01T17:41:38.749Z,8.75
2018-02-01T17:44:06.507Z,8.64
2018-02-01T17:46:34.066Z,8.52
2018-02-01T17:49:01.744Z,8.52
2018-02-01T17:51:29.325Z,8.41
2018-02-01T17:53:56.979Z,8.39
2018-02-01T17:56:24.797Z,8.40
2018-02-01T17:58:52.337Z,8.44
2018-02-01T18:01:19.925Z,8.34
2018-02-01T18:03:47.555Z,8.26
2018-02-01T18:06:15.093Z,8.30
2018-02-01T18:08:42.646Z,8.26
2018-02-01T18:11:10.191Z,8.25
2018-02-01T18:13:37.802Z,8.17
2018-02-01T18:16:05.346Z,8.06
2018-02-01T18:18:33.068Z,8.00
2018-02-01T18:21:00.875Z,7.88
2018-02-01T18:23:28.447Z,7.83
2018-02-01T18:25:56.027Z,7.79
2018-02-01T18:28:23.566Z,7.76
2018-02-01T18:30:51.115Z,7.73
2018-02-01T18:33:18.864Z,7.67
2018-02-01T18:35:46.491Z,7.63
2018-02-01T18:38:14.091Z,7.55
2018-02-01T18:40:41.630Z,7.43
2018-02-01T18:43:09.162Z,7.43
2018-02-01T18:45:36.799Z,7.43
2018-02-01T18:48:04.474Z,7.32
2018-02-01T18:50:32.022Z,7.31
2018-02-01T18:52:59.597Z,7.26
2018-02-01T18:55:27.227Z,7.24
2018-02-01T18:57:54.762Z,7.23
2018-02-01T19:00:22.450Z,7.20
2018-02-01T19:02:50.085Z,7.10
2018-02-01T19:05:17.796Z,6.99
2018-02-01T19:07:45.405Z,6.96
2018-02-01T19:10:13.046Z,6.78
2018-02-01T19:12:40.610Z,6.77
2018-02-01T19:15:08.149Z,6.67
2018-02-01T19:17:35.990Z,6.64
2018-02-01T19:20:03.586Z,6.66
2018-02-01T19:22:31.130Z,6.72
2018-02-01T19:24:58.681Z,6.75
2018-02-01T19:27:26.358Z,6.66
2018-02-01T19:29:54.175Z,6.69
2018-02-01T19:32:21.719Z,6.69
2018-02-01T19:34:49.383Z,6.69
2018-02-01T19:37:16.926Z,6.69
2018-02-01T19:39:44.461Z,6.59
2018-02-01T19:42:12.011Z,6.55
2018-02-01T19:44:39.782Z,6.46
2018-02-01T19:47:07.387Z,6.49
2018-02-01T19:49:34.937Z,6.52
2018-02-01T19:52:02.644Z,6.56
2018-02-01T19:54:30.362Z,6.50
2018-02-01T19:56:57.906Z,6.51
2018-02-01T19:59:25.458Z,6.46
2018-02-01T20:01:52.998Z,6.34
2018-02-01T20:04:20.747Z,6.26
2018-02-01T20:06:48.290Z,6.23
2018-02-01T20:09:15.850Z,6.27
2018-02-01T20:11:43.394Z,6.26
2018-02-01T20:14:10.922Z,6.16
2018-02-01T20:16:38.614Z,6.07
2018-02-01T20:19:06.156Z,5.92
2018-02-01T20:21:33.906Z,5.87
2018-02-01T20:24:01.452Z,5.80
2018-02-01T20:26:29.086Z,5.79
2018-02-01T20:28:56.638Z,5.74
2018-02-01T20:31:24.174Z,5.71
2018-02-01T20:33:51.754Z,5.63
2018-02-01T20:36:19.316Z,5.57
2018-02-01T20:38:46.902Z,5.60
2018-02-01T20:41:14.622Z,5.70
2018-02-01T20:43:42.178Z,5.70
2018-02-01T20:46:09.720Z,5.70
2018-02-01T20:48:37.263Z,5.72
2018-02-01T20:51:05.063Z,5.71
2018-02-01T20:53:32.631Z,5.75
2018-02-01T20:56:00.315Z,5.74
2018-02-01T20:58:27.858Z,5.77
2018-02-01T21:00:55.469Z,5.81
2018-02-01T21:03:23.044Z,5.87
2018-02-01T21:05:50.661Z,5.99
2018-02-01T21:08:18.269Z,6.11
2018-02-01T21:10:45.807Z,6.17
2018-02-01T21:13:13.526Z,6.19
2018-02-01T21:15:41.062Z,6.16
2018-02-01T21:18:08.611Z,6.10
2018-02-01T21:20:36.167Z,6.00
2018-02-01T21:23:03.895Z,5.86
2018-02-01T21:25:31.437Z,5.71
2018-02-01T21:27:58.978Z,5.57
2018-02-01T21:30:26.849Z,5.46
2018-02-01T21:32:54.391Z,5.46
2018-02-01T21:35:21.934Z,5.45
2018-02-01T21:37:49.703Z,5.44
2018-02-01T21:40:17.270Z,5.52
2018-02-01T21:42:44.813Z,5.56
2018-02-01T21:45:12.467Z,5.64
2018-02-01T21:47:40.016Z,5.74
2018-02-01T21:50:07.582Z,5.75
2018-02-01T21:52:35.178Z,5.93
2018-02-01T21:55:03.034Z,5.96
2018-02-01T21:57:30.578Z,5.99
2018-02-01T21:59:58.333Z,6.00
2018-02-01T22:02:26.986Z,5.87
2018-02-01T22:04:54.554Z,5.80
2018-02-01T22:07:22.090Z,5.78
2018-02-01T22:09:49.805Z,5.73
2018-02-01T22:12:17.459Z,5.75
2018-02-01T22:14:45.022Z,5.83
2018-02-01T22:17:12.575Z,5.87
2018-02-01T22:19:40.310Z,5.91
2018-02-01T22:22:07.853Z,5.93
2018-02-01T22:24:35.393Z,5.97
2018-02-01T22:27:03.165Z,5.88
2018-02-01T22:29:30.709Z,5.71
2018-02-01T22:31:58.294Z,5.56
2018-02-01T22:34:26.017Z,5.51
2018-02-01T22:36:53.735Z,5.56
2018-02-01T22:39:21.286Z,5.51
2018-02-01T22:41:48.818Z,5.38
2018-02-01T22:44:16.362Z,5.31
2018-02-01T22:46:44.010Z,5.16
2018-02-01T22:49:11.630Z,5.13
2018-02-01T22:51:39.243Z,5.15
2018-02-01T22:54:06.995Z,5.13
2018-02-01T22:56:34.546Z,5.09
2018-02-01T22:59:02.089Z,5.07
2018-02-01T23:01:29.746Z,5.08
2018-02-01T23:03:57.434Z,5.14
2018-02-01T23:06:25.050Z,5.20
2018-02-01T23:08:52.594Z,5.24
2018-02-01T23:11:20.210Z,5.31
2018-02-01T23:13:47.910Z,5.35
2018-02-01T23:16:15.457Z,5.35
2018-02-01T23:18:42.996Z,5.37
2018-02-01T23:21:10.526Z,5.33
2018-02-01T23:23:38.065Z,5.19
2018-02-01T23:26:05.661Z,5.13
2018-02-01T23:28:33.238Z,5.03
2018-02-01T23:31:00.835Z,4.94
2018-02-01T23:33:28.547Z,4.86
2018-02-01T23:35:56.268Z,4.84
2018-02-01T23:38:23.814Z,4.93
2018-02-01T23:40:51.358Z,5.04
2018-02-01T23:43:18.925Z,5.10
2018-02-01T23:45:46.487Z,5.30
2018-02-01T23:48:14.014Z,5.45
2018-02-01T23:50:41.602Z,5.63
2018-02-01T23:53:09.210Z,5.80
2018-02-01T23:55:36.746Z,5.91
2018-02-01T23:58:04.333Z,6.05
